Main page
METAR-TAF:

METAR-TAF

Airports :

King Khalid Military City

Hafar Al-Batin, Saudi Arabia

latitude: 27-54N, longitude: 045-32E, elevation: 413 m

METAR: missing

Time: 13:11 (10:11 UTC)

Forecast

The report was made 5 hours and 11 minutes ago, at 05:00 UTC
Forecast valid from 24 at 06 UTC to 24 at 20 UTC
Wind 10 kt from the South with gusts up to 20 kt
Visibility: 7000 m
Scattered clouds at a height of 4000 ft
Broken clouds at a height of 10000 ft
Temporary
from 24 at 06 UTC to 24 at 18 UTC
Visibility: 3000 m
Few clouds at a height of 3500 ft, Cumulonimbus.
Broken clouds at a height of 4000 ft
Blowing dust, thunderstorm, rain
Probability 30% :
Temporary
from 24 at 10 UTC to 24 at 16 UTC
Visibility: 1500 m

TAF: OEKK 240500Z 2406/2420 18010G20KT 7000 SCT040 BKN100 TEMPO 2406/2418 3000 BLDU TSRA FEW035CB BKN040 PROB30 TEMPO 2410/2416 1500

Weather observations and forecasts of more than 4000 airports (METAR and TAF reports).

The available stations are represented by yellow and red dots on the map.

Hover mouse over dot to see the name of the station.

Then click to see weather observations and forecasts.

To change the map : click on the green buttons with a black cross to zoom in, on the green button with a dash to zoom out, or on the green arrows for adjacent maps.


METAR-TAF: